Le Suroit — FZVN — position and weather

sailwx.info

Track history (hours):
 
Tides and Currents Weather Stations Pressure Air Temp Water Temp Dewpoint Dewpoint Depression Visibility Wind Speed Wind Dir Waves Ship Positions

Oceanographic research ship Le Suroit (France)

Detailed information on ship capabilities available from University of Delaware's Ocean Information Center.

Last reported at 2015-Jul-29 06:10 UTC. Time now 2015-Jul-30 06:07 UTC.
Position N 43°06' E 005°53'.

Length 57 m; beam 11 m.

MMSI: 227223000.

Date/timePositionNaut miles runAvg speedWind from/ knotsBaromVisibWave heightAir tempDewpointWater temp
2015-Jul-29 06:10N 43°06' E 005°53'0 0.0
2015-Jul-29 05:34N 43°06' E 005°53'0 0.0
2015-Jul-29 04:34N 43°06' E 005°53'0 0.0
2015-Jul-29 03:34N 43°06' E 005°53'0 0.0
2015-Jul-29 02:34N 43°06' E 005°53'0 0.0
2015-Jul-29 01:34N 43°06' E 005°53'0 0.0
2015-Jul-29 00:34N 43°06' E 005°53'0 0.0
2015-Jul-28 23:34N 43°06' E 005°53'0 0.0
2015-Jul-28 22:33N 43°06' E 005°53'0 0.0
2015-Jul-28 21:34N 43°06' E 005°53'0 0.0
2015-Jul-28 20:34N 43°06' E 005°53'0 0.0
2015-Jul-28 19:34N 43°06' E 005°53'0 0.0
2015-Jul-28 18:34N 43°06' E 005°53'0 0.0
2015-Jul-28 17:34N 43°06' E 005°53'0 0.0
2015-Jul-28 16:33N 43°06' E 005°53'0 0.0
2015-Jul-28 15:33N 43°06' E 005°53'0 0.0
2015-Jul-28 14:34N 43°06' E 005°53'0 0.0
2015-Jul-28 13:34N 43°06' E 005°53'0 0.0
2015-Jul-28 12:34N 43°06' E 005°53'0 0.0
2015-Jul-28 11:34N 43°06' E 005°53'0 0.0
2015-Jul-28 10:34N 43°06' E 005°53'0 0.0
2015-Jul-28 09:34N 43°06' E 005°53'0 0.0
2015-Jul-28 08:34N 43°06' E 005°53'0 0.0
2015-Jul-28 07:34N 43°06' E 005°53'0 0.0
2015-Jul-28 06:34N 43°06' E 005°53'0 0.0
2015-Jul-28 05:34N 43°06' E 005°53'0 0.0
2015-Jul-28 04:34N 43°06' E 005°53'0 0.0
2015-Jul-28 03:34N 43°06' E 005°53'0 0.0
2015-Jul-28 02:34N 43°06' E 005°53'0 0.0
2015-Jul-28 01:33N 43°06' E 005°53'0 0.0
2015-Jul-28 00:33N 43°06' E 005°53'0 0.0
2015-Jul-27 23:33N 43°06' E 005°53'0 0.0
2015-Jul-27 22:34N 43°06' E 005°53'0 0.0
2015-Jul-27 21:34N 43°06' E 005°53'0 0.0
2015-Jul-27 20:34N 43°06' E 005°53'0 0.0
2015-Jul-27 19:34N 43°06' E 005°53'0 0.0
2015-Jul-27 18:34N 43°06' E 005°53'0 0.0
2015-Jul-27 17:33N 43°06' E 005°53'0 0.0
2015-Jul-27 16:34N 43°06' E 005°53'0 0.0
2015-Jul-27 15:33N 43°06' E 005°53'2 2.1
2015-Jul-27 14:33N 43°05' E 005°55'8 6.4
2015-Jul-27 13:17N 43°01' E 005°46'811.4
2015-Jul-27 12:33N 42°60' E 005°35'1211.4
2015-Jul-27 11:32N 42°59' E 005°19'1111.0
2015-Jul-27 10:33N 42°57' E 005°04'1110.6
2015-Jul-27 09:33N 42°56' E 004°50'1010.3
2015-Jul-27 08:33N 42°54' E 004°36'1110.4
2015-Jul-27 07:32N 42°53' E 004°22'1 1.4
2015-Jul-27 06:33N 42°52' E 004°21'10 9.8
2015-Jul-27 05:33N 42°43' E 004°26'3 2.6
2015-Jul-27 04:33N 42°41' E 004°29'10 9.8
2015-Jul-27 03:34N 42°33' E 004°35'1 0.9
2015-Jul-27 02:33N 42°32' E 004°36'6 6.4
2015-Jul-27 01:33N 42°26' E 004°40'6 6.2
2015-Jul-27 00:34N 42°21' E 004°44'0 0.3
2015-Jul-26 23:33N 42°21' E 004°44'8 8.4
2015-Jul-26 22:33N 42°13' E 004°43'10 9.6
2015-Jul-26 21:33N 42°03' E 004°44'1 1.4
2015-Jul-26 20:33N 42°02' E 004°43'1 1.3
2015-Jul-26 19:33N 42°02' E 004°41'6 5.6
2015-Jul-26 18:33N 42°01' E 004°49'26 3.2
2015-Jul-26 10:34N 41°38' E 004°32'35 0.8
2015-Jul-24 16:30N 41°52' E 003°49'1010.5
2015-Jul-24 15:33N 41°53' E 003°36'30 1.8
2015-Jul-23 22:33N 42°13' E 004°07'0 0.2
2015-Jul-23 21:30N 42°13' E 004°07'6 6.3
2015-Jul-23 20:29N 42°11' E 004°15'7 6.0
2015-Jul-23 19:19N 42°08' E 004°24'0 0.1
2015-Jul-23 18:32N 42°08' E 004°24'4 4.5
2015-Jul-23 17:33N 42°06' E 004°30'9 8.8
2015-Jul-23 16:33N 42°03' E 004°40'6 6.1
2015-Jul-23 15:33N 42°01' E 004°48'7 6.6
2015-Jul-23 14:33N 41°58' E 004°56'3 2.7
2015-Jul-23 13:33N 41°57' E 004°60'0 0.2
2015-Jul-23 12:33N 41°57' E 004°60'7 6.7
2015-Jul-23 11:33N 41°54' E 005°08'8 7.5
2015-Jul-23 10:33N 41°50' E 005°17'61 5.0
2015-Jul-22 22:13N 41°24' E 006°31'1910.0
2015-Jul-22 20:16N 41°15' E 006°54'1710.0
2015-Jul-22 18:33N 41°07' E 007°14'1 0.5
2015-Jul-22 16:24N 41°07' E 007°16'910.1
2015-Jul-22 15:33N 41°03' E 007°26'4 4.4
2015-Jul-22 14:33N 41°01' E 007°31'0 0.2
2015-Jul-22 13:10N 41°01' E 007°31'16 5.9
2015-Jul-22 10:28N 40°54' E 007°50'3 2.7
2015-Jul-22 09:11N 40°52' E 007°54'7 1.8
2015-Jul-22 05:24N 40°48' E 007°60'84 9.5
2015-Jul-21 20:33N 39°60' E 006°30'0 0.1
2015-Jul-21 19:33N 40°00' E 006°30'0 0.2
2015-Jul-21 18:33N 40°00' E 006°30'2010.1
2015-Jul-21 16:33N 40°17' E 006°17'8 7.5
2015-Jul-21 15:33N 40°24' E 006°11'0 0.4
2015-Jul-21 14:27N 40°24' E 006°12'95 5.9
2015-Jul-20 22:24N 41°46' E 005°09'1 0.8
2015-Jul-20 20:33N 41°47' E 005°08'9 8.1
2015-Jul-20 19:27N 41°49' E 004°57'13 6.5
2015-Jul-20 17:32N 41°53' E 004°41'73 3.3
2015-Jul-19 19:27N 43°02' E 005°12'3 1.5
2015-Jul-19 17:31N 43°02' E 005°16'29 2.9
2015-Jul-19 07:23N 43°02' E 005°56'3 3.5
2015-Jul-19 06:32N 43°03' E 005°60'  
Track history (hours):
 
Tides and Currents Weather Stations Pressure Air Temp Water Temp Dewpoint Dewpoint Depression Visibility Wind Speed Wind Dir Waves Ship Positions

Oceanographic research ship Le Suroit (France)

Detailed information on ship capabilities available from University of Delaware's Ocean Information Center.

Last reported at 2015-Jul-29 06:10 UTC. Time now 2015-Jul-30 06:07 UTC.
Position N 43°06' E 005°53'.

Length 57 m; beam 11 m.

MMSI: 227223000.

Date/timePositionNaut miles runAvg speedWind from/ knotsBaromVisibWave heightAir tempDewpointWater temp
2015-Jul-29 06:10N 43°06' E 005°53'0 0.0
2015-Jul-29 05:34N 43°06' E 005°53'0 0.0
2015-Jul-29 04:34N 43°06' E 005°53'0 0.0
2015-Jul-29 03:34N 43°06' E 005°53'0 0.0
2015-Jul-29 02:34N 43°06' E 005°53'0 0.0
2015-Jul-29 01:34N 43°06' E 005°53'0 0.0
2015-Jul-29 00:34N 43°06' E 005°53'0 0.0
2015-Jul-28 23:34N 43°06' E 005°53'0 0.0
2015-Jul-28 22:33N 43°06' E 005°53'0 0.0
2015-Jul-28 21:34N 43°06' E 005°53'0 0.0
2015-Jul-28 20:34N 43°06' E 005°53'0 0.0
2015-Jul-28 19:34N 43°06' E 005°53'0 0.0
2015-Jul-28 18:34N 43°06' E 005°53'0 0.0
2015-Jul-28 17:34N 43°06' E 005°53'0 0.0
2015-Jul-28 16:33N 43°06' E 005°53'0 0.0
2015-Jul-28 15:33N 43°06' E 005°53'0 0.0
2015-Jul-28 14:34N 43°06' E 005°53'0 0.0
2015-Jul-28 13:34N 43°06' E 005°53'0 0.0
2015-Jul-28 12:34N 43°06' E 005°53'0 0.0
2015-Jul-28 11:34N 43°06' E 005°53'0 0.0
2015-Jul-28 10:34N 43°06' E 005°53'0 0.0
2015-Jul-28 09:34N 43°06' E 005°53'0 0.0
2015-Jul-28 08:34N 43°06' E 005°53'0 0.0
2015-Jul-28 07:34N 43°06' E 005°53'0 0.0
2015-Jul-28 06:34N 43°06' E 005°53'0 0.0
2015-Jul-28 05:34N 43°06' E 005°53'0 0.0
2015-Jul-28 04:34N 43°06' E 005°53'0 0.0
2015-Jul-28 03:34N 43°06' E 005°53'0 0.0
2015-Jul-28 02:34N 43°06' E 005°53'0 0.0
2015-Jul-28 01:33N 43°06' E 005°53'0 0.0
2015-Jul-28 00:33N 43°06' E 005°53'0 0.0
2015-Jul-27 23:33N 43°06' E 005°53'0 0.0
2015-Jul-27 22:34N 43°06' E 005°53'0 0.0
2015-Jul-27 21:34N 43°06' E 005°53'0 0.0
2015-Jul-27 20:34N 43°06' E 005°53'0 0.0
2015-Jul-27 19:34N 43°06' E 005°53'0 0.0
2015-Jul-27 18:34N 43°06' E 005°53'0 0.0
2015-Jul-27 17:33N 43°06' E 005°53'0 0.0
2015-Jul-27 16:34N 43°06' E 005°53'0 0.0
2015-Jul-27 15:33N 43°06' E 005°53'2 2.1
2015-Jul-27 14:33N 43°05' E 005°55'8 6.4
2015-Jul-27 13:17N 43°01' E 005°46'811.4
2015-Jul-27 12:33N 42°60' E 005°35'1211.4
2015-Jul-27 11:32N 42°59' E 005°19'1111.0
2015-Jul-27 10:33N 42°57' E 005°04'1110.6
2015-Jul-27 09:33N 42°56' E 004°50'1010.3
2015-Jul-27 08:33N 42°54' E 004°36'1110.4
2015-Jul-27 07:32N 42°53' E 004°22'1 1.4
2015-Jul-27 06:33N 42°52' E 004°21'10 9.8
2015-Jul-27 05:33N 42°43' E 004°26'3 2.6
2015-Jul-27 04:33N 42°41' E 004°29'10 9.8
2015-Jul-27 03:34N 42°33' E 004°35'1 0.9
2015-Jul-27 02:33N 42°32' E 004°36'6 6.4
2015-Jul-27 01:33N 42°26' E 004°40'6 6.2
2015-Jul-27 00:34N 42°21' E 004°44'0 0.3
2015-Jul-26 23:33N 42°21' E 004°44'8 8.4
2015-Jul-26 22:33N 42°13' E 004°43'10 9.6
2015-Jul-26 21:33N 42°03' E 004°44'1 1.4
2015-Jul-26 20:33N 42°02' E 004°43'1 1.3
2015-Jul-26 19:33N 42°02' E 004°41'6 5.6
2015-Jul-26 18:33N 42°01' E 004°49'26 3.2
2015-Jul-26 10:34N 41°38' E 004°32'35 0.8
2015-Jul-24 16:30N 41°52' E 003°49'1010.5
2015-Jul-24 15:33N 41°53' E 003°36'30 1.8
2015-Jul-23 22:33N 42°13' E 004°07'0 0.2
2015-Jul-23 21:30N 42°13' E 004°07'6 6.3
2015-Jul-23 20:29N 42°11' E 004°15'7 6.0
2015-Jul-23 19:19N 42°08' E 004°24'0 0.1
2015-Jul-23 18:32N 42°08' E 004°24'4 4.5
2015-Jul-23 17:33N 42°06' E 004°30'9 8.8
2015-Jul-23 16:33N 42°03' E 004°40'6 6.1
2015-Jul-23 15:33N 42°01' E 004°48'7 6.6
2015-Jul-23 14:33N 41°58' E 004°56'3 2.7
2015-Jul-23 13:33N 41°57' E 004°60'0 0.2
2015-Jul-23 12:33N 41°57' E 004°60'7 6.7
2015-Jul-23 11:33N 41°54' E 005°08'8 7.5
2015-Jul-23 10:33N 41°50' E 005°17'61 5.0
2015-Jul-22 22:13N 41°24' E 006°31'1910.0
2015-Jul-22 20:16N 41°15' E 006°54'1710.0
2015-Jul-22 18:33N 41°07' E 007°14'1 0.5
2015-Jul-22 16:24N 41°07' E 007°16'910.1
2015-Jul-22 15:33N 41°03' E 007°26'4 4.4
2015-Jul-22 14:33N 41°01' E 007°31'0 0.2
2015-Jul-22 13:10N 41°01' E 007°31'16 5.9
2015-Jul-22 10:28N 40°54' E 007°50'3 2.7
2015-Jul-22 09:11N 40°52' E 007°54'7 1.8
2015-Jul-22 05:24N 40°48' E 007°60'84 9.5
2015-Jul-21 20:33N 39°60' E 006°30'0 0.1
2015-Jul-21 19:33N 40°00' E 006°30'0 0.2
2015-Jul-21 18:33N 40°00' E 006°30'2010.1
2015-Jul-21 16:33N 40°17' E 006°17'8 7.5
2015-Jul-21 15:33N 40°24' E 006°11'0 0.4
2015-Jul-21 14:27N 40°24' E 006°12'95 5.9
2015-Jul-20 22:24N 41°46' E 005°09'1 0.8
2015-Jul-20 20:33N 41°47' E 005°08'9 8.1
2015-Jul-20 19:27N 41°49' E 004°57'13 6.5
2015-Jul-20 17:32N 41°53' E 004°41'73 3.3
2015-Jul-19 19:27N 43°02' E 005°12'3 1.5
2015-Jul-19 17:31N 43°02' E 005°16'29 2.9
2015-Jul-19 07:23N 43°02' E 005°56'3 3.5
2015-Jul-19 06:32N 43°03' E 005°60'  

Dump ship's entire track history